Station: Hindmarsh Island  

  Atmospheric Gas Attenuation - ITU Rec 676-11   ----------------- dB/100km -----------------
Date Time Temp RH % AH g/m3 Dew Point Wind Direction Speed kph Gust kph Barometer mB Rainfall Since 9am 24GHz 47GHz 76GHz 122GHz 134GHz 241GHz
02/09 08:00 12.8 77 8.63 8.9 13 17 1017.3 0.6 19.7 26.4 40.6 106.5 100.4 345.4
02/09 07:50 12 81 8.63 8.8 13 17 1017.3 0.6 19.7 26.6 41.0 107.6 101.5 348.9
02/09 07:40 11.7 83 8.68 8.9 11 17 1017.2 0.6 19.9 26.8 41.4 108.6 102.5 352.6
02/09 07:30 11.2 85 8.62 8.8 11 15 1017.2 0.6 19.8 26.9 41.4 108.6 102.4 352.0
02/09 07:20 10.9 87 8.66 8.8 11 13 1017.2 0.6 19.9 27.0 41.7 109.5 103.3 355.3
02/09 07:10 10.5 87 8.44 8.4 11 13 1017 0.6 19.4 26.8 41.0 107.6 100.8 346.4
02/09 07:00 10.4 88 8.48 8.5 11 13 1017.1 0.6 19.5 26.9 41.2 108.2 101.5 348.8
02/09 06:50 10.1 87 8.23 8 9 13 1016.9 0.6 19.0 26.5 40.3 105.8 98.4 338.0
02/09 06:40 10.2 87 8.28 8.1 9 11 1016.7 0.6 19.1 26.6 40.5 106.2 99.0 340.0
02/09 06:30 10.4 86 8.29 8.2 9 11 1016.7 0.6 19.1 26.5 40.4 106.0 98.9 339.6
02/09 06:20 10.6 86 8.4 8.4 11 13 1016.7 0.6 19.3 26.6 40.8 106.9 100.1 344.0
02/09 06:10 10.6 86 8.4 8.4 11 15 1016.7 0.6 19.3 26.6 40.8 106.9 100.1 344.0
02/09 06:00 10.8 86 8.5 8.6 15 17 1016.5 0.6 19.5 26.7 41.1 107.8 101.2 347.8
02/09 05:50 10.8 86 8.5 8.6 13 15 1016.5 0.6 19.5 26.7 41.1 107.8 101.2 347.8
02/09 05:40 10.8 86 8.5 8.6 13 15 1016.5 0.6 19.5 26.7 41.1 107.8 101.2 347.8
02/09 05:30 10.9 88 8.75 9 13 17 1016.4 0.6 20.1 27.1 42.1 110.4 104.5 359.4
02/09 05:20 10.8 89 8.8 9.1 13 17 1016.5 0.6 20.2 27.3 42.3 111.1 105.3 362.4
02/09 05:10 10.8 89 8.8 9.1 13 13 1016.3 0.6 20.2 27.2 42.3 111.1 105.3 362.3
02/09 05:00 10.9 89 8.85 9.2 11 13 1016.3 0.6 20.3 27.3 42.5 111.5 105.9 364.3
02/09 04:50 11 89 8.91 9.3 11 15 1016.3 0.6 20.4 27.4 42.7 112.1 106.6 366.7
02/09 04:40 11.1 89 8.97 9.4 11 17 1016.2 0.6 20.5 27.4 42.9 112.6 107.3 369.1
02/09 04:30 11.3 89 9.08 9.6 11 13 1016.1 0.6 20.7 27.6 43.2 113.5 108.5 373.5
02/09 04:20 11.7 88 9.21 9.8 11 15 1016.1 0.6 21.0 27.7 43.6 114.4 109.8 377.9
02/09 04:10 12 88 9.38 10.1 11 17 1016.1 0.6 21.3 27.8 44.1 115.9 111.7 384.7
02/09 04:00 12.3 88 9.56 10.4 15 19 1016.1 0.6 21.7 28.1 44.7 117.5 113.8 392.0
02/09 03:50 12.3 88 9.56 10.4 13 17 1016 0.6 21.7 28.1 44.7 117.5 113.8 392.0
02/09 03:40 12.5 88 9.68 10.6 17 22 1016 0.6 22.0 28.2 45.1 118.5 115.1 396.8
02/09 03:30 12.4 88 9.62 10.5 15 20 1016 0.6 21.8 28.1 44.9 118.0 114.4 394.4
02/09 03:20 12.5 88 9.68 10.6 17 24 1016 0.6 22.0 28.2 45.1 118.5 115.1 396.8
02/09 03:10 12.5 88 9.68 10.6 15 20 1016.1 0.6 22.0 28.2 45.1 118.5 115.1 396.9
02/09 03:00 12.5 88 9.68 10.6 13 19 1016.2 0.6 22.0 28.2 45.1 118.6 115.2 396.9
02/09 02:50 12.7 89 9.91 10.9 17 20 1016.2 0.6 22.5 28.5 46.0 120.9 118.1 407.2
02/09 02:40 12.8 88 9.86 10.9 13 19 1016.2 0.6 22.3 28.4 45.7 120.1 117.2 404.2
02/09 02:30 13.2 89 10.22 11.4 17 22 1016.3 0.6 23.1 28.9 47.0 123.6 121.7 419.8
02/09 02:20 13.2 88 10.1 11.3 15 22 1016.4 0.6 22.8 28.7 46.5 122.3 120.0 413.9
02/09 02:10 13.5 87 10.18 11.4 11 19 1016.4 0.6 23.0 28.7 46.7 122.7 120.7 416.2
02/09 02:00 13.5 87 10.18 11.4 13 20 1016.4 0.6 23.0 28.7 46.7 122.7 120.7 416.2
02/09 01:50 13.5 87 10.18 11.4 13 17 1016.5 0.6 23.0 28.8 46.7 122.7 120.7 416.3
02/09 01:40 13.4 87 10.11 11.3 11 17 1016.4 0.6 22.8 28.7 46.4 122.1 119.8 413.3
02/09 01:30 13.5 86 10.06 11.2 15 20 1016.4 0.6 22.7 28.5 46.2 121.4 119.0 410.4
02/09 01:20 13.6 87 10.24 11.5 15 17 1016.4 0.6 23.1 28.8 46.9 123.2 121.3 418.7
02/09 01:10 13.5 86 10.06 11.2 20 24 1016.3 0.6 22.7 28.5 46.1 121.3 119.0 410.3
02/09 01:00 13.5 85 9.94 11 20 24 1016.2 0.6 22.5 28.3 45.6 120.0 117.3 404.4
02/09 00:50 13.8 84 10.01 11.1 22 26 1016.2 0.6 22.6 28.3 45.8 120.3 117.8 406.3
02/09 00:40 13.7 83 9.83 10.9 20 24 1016.2 0.6 22.2 28.1 45.0 118.4 115.4 398.1
02/09 00:30 13.8 83 9.89 11 22 26 1016.2 0.6 22.3 28.1 45.2 118.9 116.1 400.4
02/09 00:20 13.6 84 9.89 11 20 24 1016.3 0.6 22.4 28.2 45.4 119.3 116.4 401.5
02/09 00:10 14 87 10.49 11.9 20 26 1016.3 0.6 23.6 29.1 47.7 125.5 124.2 428.7
02/09 00:00 13.9 87 10.43 11.8 20 26 1016.3 0.6 23.5 29.0 47.5 124.9 123.5 426.3
01/09 23:50 13.9 87 10.43 11.8 19 22 1016.4 0.6 23.5 29.0 47.5 124.9 123.5 426.4
01/09 23:40 14 87 10.49 11.9 20 24 1016.4 0.6 23.6 29.1 47.7 125.5 124.2 428.8
01/09 23:30 13.9 87 10.43 11.8 20 24 1016.4 0.6 23.5 29.0 47.5 124.9 123.5 426.4
01/09 23:20 14.1 88 10.68 12.1 20 26 1016.4 0.6 24.0 29.4 48.4 127.5 126.7 437.6
01/09 23:10 14 88 10.61 12 20 26 1016.4 0.6 23.9 29.3 48.2 126.8 125.9 434.7
01/09 23:00 13.8 88 10.49 11.8 19 24 1016.5 0.6 23.6 29.2 47.8 125.8 124.6 429.9
01/09 22:50 13.9 88 10.55 11.9 17 22 1016.5 0.6 23.8 29.3 48.0 126.3 125.2 432.3
01/09 22:40 14 88 10.61 12 19 24 1016.5 0.6 23.9 29.3 48.2 126.9 125.9 434.7
01/09 22:30 14 89 10.74 12.2 19 22 1016.5 0.6 24.2 29.6 48.8 128.4 127.8 441.2
01/09 22:20 14.3 90 11.06 12.7 17 20 1016.6 0.6 24.8 30.0 50.0 131.6 131.8 455.4
01/09 22:10 14.5 90 11.19 12.9 19 22 1016.6 0.6 25.1 30.2 50.4 132.8 133.4 460.8
01/09 22:00 14.6 90 11.26 13 17 24 1016.7 0.6 25.2 30.3 50.7 133.4 134.2 463.7
01/09 21:50 14.7 90 11.33 13.1 20 28 1016.7 0.6 25.4 30.4 50.9 134.1 135.0 466.6
01/09 21:40 14.8 89 11.27 13 22 28 1016.7 0.6 25.3 30.2 50.6 133.2 134.0 463.0
01/09 21:30 15.2 88 11.42 13.2 20 28 1016.6 0.6 25.5 30.3 51.0 134.2 135.4 468.0
01/09 21:20 15.1 88 11.35 13.1 17 24 1016.5 0.6 25.4 30.2 50.7 133.6 134.6 465.1
01/09 21:10 15 88 11.28 13 19 24 1016.4 0.6 25.3 30.2 50.5 132.9 133.7 462.2
01/09 21:00 15.1 88 11.35 13.1 20 28 1016.2 0.6 25.4 30.2 50.7 133.5 134.5 465.0
01/09 20:50 15.5 85 11.24 13 22 26 1016.1 0.6 25.1 29.9 50.0 131.6 132.3 457.1
01/09 20:40 15.8 85 11.44 13.3 17 20 1015.9 0.6 25.6 30.1 50.6 133.3 134.6 465.2
01/09 20:30 15.7 85 11.37 13.2 13 20 1015.8 0.6 25.4 30.0 50.4 132.7 133.7 462.2
01/09 20:20 15.6 84 11.17 12.9 13 19 1015.7 0.6 25.0 29.7 49.6 130.5 131.1 452.9
01/09 20:10 15.6 84 11.17 12.9 15 20 1015.6 0.6 25.0 29.7 49.6 130.5 131.1 452.9
01/09 20:00 15.6 83 11.04 12.7 17 20 1015.5 0.6 24.7 29.5 49.0 129.0 129.2 446.5
01/09 19:50 15.7 82 10.97 12.6 15 24 1015.4 0.6 24.6 29.3 48.6 128.0 128.1 442.4
01/09 19:40 15.7 82 10.97 12.6 17 26 1015.3 0.6 24.6 29.3 48.6 128.0 128.0 442.4
01/09 19:30 15.8 81 10.9 12.5 22 30 1015.2 0.6 24.4 29.2 48.3 127.1 126.9 438.4
01/09 19:20 16 79 10.76 12.4 24 30 1015.2 0.6 24.1 28.9 47.6 125.2 124.6 430.5
01/09 19:10 16.1 78 10.69 12.3 22 33 1015.3 0.6 23.9 28.7 47.2 124.2 123.5 426.6
01/09 19:00 16.4 76 10.61 12.2 22 35 1015.2 0.6 23.7 28.5 46.7 122.9 121.9 421.1
01/09 18:50 16.4 74 10.33 11.8 17 22 1015.1 0.6 23.1 28.0 45.5 119.7 118.1 407.7
01/09 18:40 16.6 72 10.17 11.5 20 30 1014.9 0.6 22.8 27.7 44.7 117.7 115.6 399.0
01/09 18:30 16.7 72 10.23 11.6 22 30 1014.8 0.6 22.9 27.7 44.9 118.2 116.3 401.3
01/09 18:20 16.8 71 10.15 11.5 24 35 1014.5 0.6 22.7 27.6 44.5 117.1 115.0 397.0
01/09 18:10 17 70 10.13 11.5 24 37 1014.4 0.6 22.7 27.5 44.3 116.6 114.4 395.0
01/09 18:00 17.2 71 10.4 11.9 24 33 1014.2 0.6 23.3 27.8 45.3 119.2 117.7 406.5
01/09 17:50 17.2 72 10.54 12.1 22 28 1014.2 0.6 23.6 28.1 45.9 120.7 119.6 413.1
01/09 17:40 17.3 70 10.31 11.8 20 32 1014.2 0.6 23.1 27.7 44.9 118.1 116.4 401.8
01/09 17:30 17.2 71 10.4 11.9 15 20 1014 0.6 23.3 27.8 45.3 119.2 117.7 406.5
01/09 17:20 17.2 70 10.25 11.7 15 20 1013.8 0.6 22.9 27.6 44.7 117.5 115.7 399.4
01/09 17:10 17.2 70 10.25 11.7 15 24 1013.6 0.6 22.9 27.6 44.7 117.5 115.7 399.3
01/09 17:00 17.1 70 10.19 11.6 20 32 1013.2 0.6 22.8 27.5 44.5 116.9 115.0 396.9
01/09 16:50 17.1 72 10.48 12 24 37 1012.9 0.6 23.4 28.0 45.6 120.1 118.8 410.4
01/09 16:40 16.9 73 10.5 12 33 46 1012.7 0.6 23.5 28.0 45.8 120.6 119.4 412.3
01/09 16:30 16.4 75 10.47 12 30 48 1011.8 0.6 23.5 28.1 45.9 120.9 119.7 413.3
01/09 16:20 15.9 78 10.56 12.1 32 48 1011.7 0.6 23.7 28.4 46.6 122.7 121.7 420.2
01/09 16:10 15.6 81 10.77 12.4 33 48 1011.6 0.6 24.1 28.9 47.7 125.5 125.1 432.0
01/09 16:00 15.5 82 10.84 12.4 41 57 1012.5 0.6 24.3 29.1 48.1 126.6 126.3 436.2
01/09 15:50 15.5 82 10.84 12.4 43 59 1011.9 0.6 24.3 29.0 48.0 126.5 126.2 436.0
01/09 15:40 15.5 82 10.84 12.4 41 63 1011.9 0.6 24.3 29.0 48.0 126.5 126.2 436.0
01/09 15:30 15.8 80 10.77 12.4 32 65 1012.4 0.2 24.1 28.8 47.6 125.3 124.8 431.1

Last Refresh: 02-Sep-2026 08:03:47

Bureau of Meteorology